Flight Track Log - Related Links

Times and Time Zones

All times are in EST time to prevent confusion due to time zone crossing. See the CPT7773 flight status page for this flight to view local times or setup timezone preferences in your user account.

Time Position Orientation Groundspeed Altitude Reporting Facility
EST Latitude Longitude Course Direction KTS MPH feet Rate Location/Type
Mon 08:11:33 PM 44.5633 -108.9642 109° East 124 143 9,200  Level Salt Lake Center
Mon 08:12:35 PM 44.5478 -108.9017 109° East 170 196 10,600 1,161 Climbing Salt Lake Center
Mon 08:13:37 PM 44.5167 -108.8503 130° Southeast 172 198 11,600 732 Climbing Salt Lake Center
Mon 08:14:38 PM 44.4844 -108.8014 133° Southeast 172 198 12,100 683 Climbing Salt Lake Center
Mon 08:15:40 PM 44.4506 -108.7483 132° Southeast 176 203 13,000 484 Climbing Salt Lake Center
Mon 08:16:42 PM 44.4100 -108.6881 133° Southeast 189 217 13,100 49 Climbing Salt Lake Center
Mon 08:17:43 PM 44.3642 -108.6264 136° Southeast 207 238 13,100  Level Salt Lake Center
Mon 08:18:45 PM 44.3142 -108.5492 132° Southeast 218 251 13,100  Level Salt Lake Center
Mon 08:19:47 PM 44.2722 -108.4839 132° Southeast 223 257 13,100  Level Salt Lake Center
Mon 08:20:48 PM 44.2303 -108.4192 132° Southeast 225 259 13,100  Level Salt Lake Center
Mon 08:21:50 PM 44.1878 -108.3556 133° Southeast 225 259 13,100  Level Salt Lake Center
Mon 08:22:52 PM 44.1469 -108.2922 132° Southeast 224 258 13,100  Level Salt Lake Center
Mon 08:23:53 PM 44.1061 -108.2292 132° Southeast 223 257 13,100  Level Salt Lake Center
Mon 08:24:55 PM 44.0653 -108.1667 132° Southeast 221 254 13,100  Level Salt Lake Center
Mon 08:25:57 PM 44.0164 -108.0939 133° Southeast 219 252 13,100 -49 Level Salt Lake Center
Mon 08:26:58 PM 43.9772 -108.0322 131° Southeast 216 249 13,000  Descending Salt Lake Center
Mon 08:28:00 PM 43.9392 -107.9742 132° Southeast 212 244 13,100 48 Climbing Salt Lake Center
Mon 08:29:02 PM 43.8986 -107.9175 135° Southeast 210 242 13,100  Level Salt Lake Center
Mon 08:30:03 PM 43.8592 -107.8614 134° Southeast 207 238 13,100  Level Salt Lake Center
Mon 08:31:05 PM 43.8228 -107.8050 132° Southeast 203 234 13,100  Level Salt Lake Center
Mon 08:32:06 PM 43.7858 -107.7483 132° Southeast 200 230 13,100  Level Salt Lake Center
Mon 08:33:08 PM 43.7406 -107.6811 133° Southeast 200 230 13,100  Level Salt Lake Center
Mon 08:34:10 PM 43.7017 -107.6253 134° Southeast 201 231 13,100  Level Salt Lake Center
Mon 08:35:11 PM 43.6628 -107.5669 133° Southeast 203 234 13,100  Level Salt Lake Center
Mon 08:36:13 PM 43.6225 -107.5069 133° Southeast 207 238 13,100  Level Salt Lake Center
Mon 08:37:15 PM 43.5814 -107.4483 134° Southeast 212 244 13,100  Level Salt Lake Center
Mon 08:38:16 PM 43.5411 -107.3883 133° Southeast 213 245 13,100  Level Salt Lake Center
Mon 08:39:18 PM 43.5008 -107.3275 132° Southeast 216 249 13,100  Level Salt Lake Center
Mon 08:40:19 PM 43.4511 -107.2553 133° Southeast 217 250 13,100  Level Salt Lake Center
Mon 08:41:21 PM 43.4106 -107.1967 134° Southeast 215 247 13,100  Level Salt Lake Center
Mon 08:42:23 PM 43.3719 -107.1414 134° Southeast 205 236 13,100  Level Salt Lake Center
Mon 08:43:24 PM 43.3364 -107.0847 131° Southeast 199 229 13,100  Level Salt Lake Center
Mon 08:44:26 PM 43.2978 -107.0317 135° Southeast 197 227 13,100  Level Salt Lake Center
Mon 08:45:27 PM 43.2592 -106.9772 134° Southeast 198 228 13,100 -244 Level Salt Lake Center
Mon 08:46:29 PM 43.2189 -106.9208 134° Southeast 202 232 12,600 -585 Descending Salt Lake Center
Mon 08:47:30 PM 43.1742 -106.8536 132° Southeast 211 243 11,900 -634 Descending Salt Lake Center
Mon 08:48:32 PM 43.1356 -106.7972 133° Southeast 212 244 11,300 -567 Descending Salt Lake Center
Mon 08:49:37 PM 43.0975 -106.7372 131° Southeast 216 249 10,700 -797 Descending Denver Center
Mon 08:50:40 PM 43.0478 -106.6531 129° Southeast 222 255 9,600 -1,113 Descending Denver Center
Mon 08:51:41 PM 43.0153 -106.5881 124° Southeast 220 253 8,400 -1,220 Descending Denver Center
Mon 08:52:43 PM 42.9803 -106.5175 124° Southeast 209 241 7,100 -1,258 Descending Denver Center
Mon 08:55:00 PM 42.9128 -106.4755 124° Southeast  Level FlightAware Approximate

Login

Don't have an account? Register now (free) for customized features, flight alerts, and more!